createdAt,value
2022-12-24T00:00:21.351Z,6.40
2022-12-24T00:02:49.320Z,6.40
2022-12-24T00:05:17.578Z,6.30
2022-12-24T00:07:45.314Z,6.30
2022-12-24T00:10:13.385Z,6.40
2022-12-24T00:12:42.434Z,6.40
2022-12-24T00:15:11.146Z,6.40
2022-12-24T00:17:38.878Z,6.40
2022-12-24T00:20:08.245Z,6.40
2022-12-24T00:22:35.947Z,6.30
2022-12-24T00:25:03.849Z,6.40
2022-12-24T00:27:31.586Z,6.40
2022-12-24T00:30:00.641Z,6.30
2022-12-24T00:32:28.355Z,6.40
2022-12-24T00:34:56.100Z,6.40
2022-12-24T00:37:23.835Z,6.30
2022-12-24T00:39:51.593Z,6.20
2022-12-24T00:42:19.310Z,6.20
2022-12-24T00:44:47.041Z,6.30
2022-12-24T00:47:16.076Z,6.40
2022-12-24T00:49:43.846Z,6.30
2022-12-24T00:52:11.561Z,6.30
2022-12-24T00:54:39.267Z,6.10
2022-12-24T00:57:06.994Z,6.00
2022-12-24T00:59:34.727Z,6.00
2022-12-24T01:02:02.536Z,6.00
2022-12-24T01:04:49.499Z,6.10
2022-12-24T01:07:17.254Z,6.20
2022-12-24T01:09:44.994Z,6.20
2022-12-24T01:12:12.796Z,6.20
2022-12-24T01:14:40.549Z,6.30
2022-12-24T01:17:08.323Z,6.20
2022-12-24T01:19:37.406Z,6.20
2022-12-24T01:22:05.158Z,6.10
2022-12-24T01:24:32.862Z,6.10
2022-12-24T01:27:00.603Z,6.20
2022-12-24T01:29:28.321Z,6.20
2022-12-24T01:31:56.040Z,6.20
2022-12-24T01:34:23.776Z,6.20
2022-12-24T01:36:52.870Z,6.20
2022-12-24T01:39:20.615Z,6.10
2022-12-24T01:42:06.120Z,6.00
2022-12-24T01:44:37.371Z,6.10
2022-12-24T01:47:10.181Z,6.00
2022-12-24T01:49:39.982Z,6.10
2022-12-24T01:52:12.462Z,6.20
2022-12-24T01:54:45.644Z,6.20
2022-12-24T01:57:18.640Z,6.10
2022-12-24T01:59:50.991Z,6.00
2022-12-24T02:02:19.894Z,6.00
2022-12-24T02:04:52.377Z,6.00
2022-12-24T02:07:21.498Z,6.10
2022-12-24T02:09:54.146Z,6.10
2022-12-24T02:12:21.902Z,6.20
2022-12-24T02:14:49.925Z,6.20
2022-12-24T02:17:27.218Z,6.10
2022-12-24T02:20:18.532Z,6.10
2022-12-24T02:23:04.242Z,6.10
2022-12-24T02:25:45.090Z,6.10
2022-12-24T02:28:26.818Z,6.10
2022-12-24T02:31:00.387Z,6.10
2022-12-24T02:33:32.637Z,6.00
2022-12-24T02:36:06.952Z,6.00
2022-12-24T02:38:40.698Z,6.00
2022-12-24T02:41:11.568Z,6.10
2022-12-24T02:43:43.329Z,6.10
2022-12-24T02:46:16.680Z,6.00
2022-12-24T02:48:46.452Z,6.00
2022-12-24T02:51:14.776Z,6.00
2022-12-24T02:53:42.795Z,6.00
2022-12-24T02:56:24.174Z,6.00
2022-12-24T02:59:07.520Z,6.00
2022-12-24T03:01:47.121Z,5.90
2022-12-24T03:04:39.345Z,6.00
2022-12-24T03:07:15.113Z,6.00
2022-12-24T03:09:52.892Z,6.00
2022-12-24T03:12:25.254Z,6.10
2022-12-24T03:14:53.463Z,6.00
2022-12-24T03:17:22.839Z,6.10
2022-12-24T03:19:51.163Z,6.00
2022-12-24T03:22:19.605Z,6.00
2022-12-24T03:24:47.351Z,6.00
2022-12-24T03:27:16.231Z,6.00
2022-12-24T03:29:43.987Z,6.00
2022-12-24T03:32:11.699Z,6.00
2022-12-24T03:34:40.890Z,6.00
2022-12-24T03:37:08.714Z,6.10
2022-12-24T03:39:36.424Z,6.10
2022-12-24T03:42:04.320Z,6.00
2022-12-24T03:44:32.074Z,6.00
2022-12-24T03:46:59.759Z,5.90
2022-12-24T03:49:27.518Z,5.90
2022-12-24T03:51:56.604Z,5.90
2022-12-24T03:54:24.335Z,5.80
2022-12-24T03:56:52.057Z,5.80
2022-12-24T03:59:19.940Z,5.70
2022-12-24T04:01:47.804Z,5.80
2022-12-24T04:04:15.775Z,5.80
2022-12-24T04:06:43.586Z,5.90
2022-12-24T04:09:12.736Z,5.90
2022-12-24T04:11:40.451Z,5.80
2022-12-24T04:14:08.159Z,5.90
2022-12-24T04:16:35.916Z,5.90
2022-12-24T04:19:03.687Z,5.90
2022-12-24T04:21:31.397Z,6.00
2022-12-24T04:23:59.123Z,6.00
2022-12-24T04:26:28.219Z,5.90
2022-12-24T04:28:55.941Z,5.90
2022-12-24T04:31:23.735Z,5.90
2022-12-24T04:33:52.761Z,6.00
2022-12-24T04:36:21.340Z,6.00
2022-12-24T04:38:49.925Z,5.90
2022-12-24T04:41:23.870Z,5.80
2022-12-24T04:43:55.380Z,5.80
2022-12-24T04:46:25.228Z,5.80
2022-12-24T04:48:54.513Z,5.70
2022-12-24T04:51:22.601Z,5.70
2022-12-24T04:53:50.364Z,5.80
2022-12-24T04:56:19.860Z,5.70
2022-12-24T04:58:47.945Z,5.80
2022-12-24T05:01:19.517Z,5.80
2022-12-24T05:03:47.764Z,5.70
2022-12-24T05:06:17.547Z,5.80
2022-12-24T05:08:45.728Z,5.90
2022-12-24T05:11:15.714Z,5.90
2022-12-24T05:13:47.025Z,5.90
2022-12-24T05:16:18.613Z,5.90
2022-12-24T05:18:46.879Z,5.90
2022-12-24T05:21:16.876Z,5.70
2022-12-24T05:24:02.249Z,5.80
2022-12-24T05:26:34.119Z,5.70
2022-12-24T05:29:03.022Z,5.70
2022-12-24T05:31:33.640Z,5.70
2022-12-24T05:34:03.200Z,5.70
2022-12-24T05:36:31.323Z,5.70
2022-12-24T05:38:59.250Z,5.70
2022-12-24T05:41:27.477Z,5.70
2022-12-24T05:43:55.236Z,5.70
2022-12-24T05:46:25.035Z,5.80
2022-12-24T05:48:54.345Z,5.80
2022-12-24T05:51:23.332Z,5.90
2022-12-24T05:53:54.320Z,5.90
2022-12-24T05:56:24.087Z,5.80
2022-12-24T05:58:53.512Z,5.70
2022-12-24T06:01:21.788Z,5.80
2022-12-24T06:03:50.340Z,5.80
2022-12-24T06:06:21.303Z,5.70
2022-12-24T06:08:50.367Z,5.80
2022-12-24T06:11:20.683Z,5.70
2022-12-24T06:13:48.642Z,5.70
2022-12-24T06:16:18.528Z,5.60
2022-12-24T06:18:47.082Z,5.70
2022-12-24T06:21:15.704Z,5.80
2022-12-24T06:23:45.987Z,5.70
2022-12-24T06:26:15.276Z,5.60
2022-12-24T06:28:43.272Z,5.60
2022-12-24T06:31:14.428Z,5.60
2022-12-24T06:33:42.305Z,5.70
2022-12-24T06:36:17.503Z,5.70
2022-12-24T06:38:47.815Z,5.70
2022-12-24T06:41:16.052Z,5.80
2022-12-24T06:43:46.446Z,5.80
2022-12-24T06:46:14.981Z,5.80
2022-12-24T06:48:44.170Z,5.80
2022-12-24T06:51:12.235Z,5.80
2022-12-24T06:53:39.979Z,5.90
2022-12-24T06:56:11.023Z,5.80
2022-12-24T06:58:39.406Z,5.80
2022-12-24T07:01:09.546Z,5.90
2022-12-24T07:03:38.549Z,5.90
2022-12-24T07:06:06.672Z,5.90
2022-12-24T07:08:36.347Z,5.90
2022-12-24T07:11:04.674Z,5.80
2022-12-24T07:13:34.407Z,5.80
2022-12-24T07:16:04.281Z,5.80
2022-12-24T07:18:32.541Z,5.70
2022-12-24T07:21:00.901Z,5.70
2022-12-24T07:23:28.628Z,5.70
2022-12-24T07:25:56.389Z,5.80
2022-12-24T07:28:27.796Z,5.90
2022-12-24T07:30:57.885Z,5.90
2022-12-24T07:33:26.365Z,5.90
2022-12-24T07:36:00.564Z,5.80
2022-12-24T07:38:28.498Z,5.80
2022-12-24T07:40:56.243Z,5.80
2022-12-24T07:43:24.115Z,5.80
2022-12-24T07:45:52.119Z,5.80
2022-12-24T07:48:21.156Z,5.80
2022-12-24T07:50:50.435Z,5.80
2022-12-24T07:53:18.260Z,5.80
2022-12-24T07:55:46.023Z,5.80
2022-12-24T07:58:13.749Z,5.90
2022-12-24T08:00:41.800Z,5.80
2022-12-24T08:03:17.727Z,5.90
2022-12-24T08:05:47.551Z,5.90
2022-12-24T08:08:15.539Z,5.90
2022-12-24T08:10:45.662Z,6.00
2022-12-24T08:13:14.004Z,6.10
2022-12-24T08:15:41.864Z,6.10
2022-12-24T08:18:10.177Z,6.10
2022-12-24T08:20:39.651Z,6.10
2022-12-24T08:23:09.565Z,6.20
2022-12-24T08:25:37.634Z,6.30
2022-12-24T08:28:06.338Z,6.30
2022-12-24T08:30:34.327Z,6.40
2022-12-24T08:33:02.215Z,6.40
2022-12-24T08:35:30.001Z,6.40
2022-12-24T08:37:58.142Z,6.50
2022-12-24T08:40:27.286Z,6.50
2022-12-24T08:42:55.162Z,6.60
2022-12-24T08:45:23.208Z,6.60
2022-12-24T08:47:50.919Z,6.60
2022-12-24T08:50:18.833Z,6.60
2022-12-24T08:52:46.591Z,6.60
2022-12-24T08:55:14.316Z,6.70
2022-12-24T08:57:43.472Z,6.80
2022-12-24T09:00:14.002Z,7.00
2022-12-24T09:02:41.812Z,6.90
2022-12-24T09:05:10.145Z,7.10
2022-12-24T09:07:38.217Z,7.20
2022-12-24T09:10:06.950Z,7.30
2022-12-24T09:12:34.714Z,7.30
2022-12-24T09:15:04.623Z,7.40
2022-12-24T09:17:32.676Z,7.40
2022-12-24T09:20:00.413Z,7.50
2022-12-24T09:22:28.166Z,7.50
2022-12-24T09:24:56.050Z,7.60
2022-12-24T09:27:23.937Z,7.60
2022-12-24T09:29:51.673Z,7.60
2022-12-24T09:32:20.856Z,7.70
2022-12-24T09:34:48.718Z,7.70
2022-12-24T09:37:16.424Z,7.80
2022-12-24T09:39:44.510Z,7.90
2022-12-24T09:42:24.540Z,7.90
2022-12-24T09:44:59.741Z,7.90
2022-12-24T09:47:34.312Z,7.90
2022-12-24T09:50:05.571Z,8.00
2022-12-24T09:52:37.375Z,8.00
2022-12-24T09:55:16.310Z,8.00
2022-12-24T09:57:46.169Z,8.00
2022-12-24T10:00:21.852Z,8.00
2022-12-24T10:02:51.236Z,8.10
2022-12-24T10:05:24.884Z,8.10
2022-12-24T10:08:01.972Z,8.10
2022-12-24T10:10:43.607Z,8.20
2022-12-24T10:13:23.258Z,8.20
2022-12-24T10:15:58.188Z,8.30
2022-12-24T10:18:36.531Z,8.30
2022-12-24T10:21:13.217Z,8.30
2022-12-24T10:23:46.255Z,8.20
2022-12-24T10:26:19.047Z,8.20
2022-12-24T10:28:49.984Z,8.20
2022-12-24T10:31:24.199Z,8.30
2022-12-24T10:33:58.689Z,8.30
2022-12-24T10:36:29.342Z,8.30
2022-12-24T10:38:57.948Z,8.40
2022-12-24T10:41:27.250Z,8.40
2022-12-24T10:43:56.182Z,8.60
2022-12-24T10:46:36.130Z,8.60
2022-12-24T10:49:08.077Z,8.60
2022-12-24T10:51:42.660Z,8.80
2022-12-24T10:54:17.290Z,8.80
2022-12-24T10:56:52.429Z,8.80
2022-12-24T10:59:28.816Z,8.80
2022-12-24T11:01:58.328Z,8.90
2022-12-24T11:04:29.154Z,8.90
2022-12-24T11:06:58.541Z,8.80
2022-12-24T11:09:30.059Z,8.90
2022-12-24T11:12:03.736Z,8.80
2022-12-24T11:14:37.939Z,8.90
2022-12-24T11:17:06.273Z,9.00
2022-12-24T11:19:38.758Z,9.10
2022-12-24T11:22:09.003Z,9.40
2022-12-24T11:24:40.104Z,9.80
2022-12-24T11:27:39.887Z,10.80
2022-12-24T11:30:30.104Z,11.00
2022-12-24T11:33:21.202Z,10.80
2022-12-24T11:35:53.607Z,10.40
2022-12-24T11:38:24.955Z,10.20
2022-12-24T11:41:00.715Z,10.00
2022-12-24T11:43:44.421Z,9.70
2022-12-24T11:46:37.511Z,9.40
2022-12-24T11:49:24.519Z,9.40
2022-12-24T11:52:25.257Z,9.50
2022-12-24T11:55:08.896Z,9.50
2022-12-24T11:57:47.756Z,9.50
2022-12-24T12:00:16.011Z,9.50
2022-12-24T12:02:47.194Z,9.60
2022-12-24T12:05:19.978Z,9.60
2022-12-24T12:07:52.965Z,9.50
2022-12-24T12:10:24.133Z,9.50
2022-12-24T12:13:01.625Z,9.50
2022-12-24T12:15:34.540Z,9.50
2022-12-24T12:18:08.438Z,9.40
2022-12-24T12:20:41.402Z,9.30
2022-12-24T12:23:17.100Z,9.40
2022-12-24T12:25:48.579Z,9.30
2022-12-24T12:28:20.892Z,9.30
2022-12-24T12:31:00.954Z,9.30
2022-12-24T12:33:34.682Z,9.30
2022-12-24T12:36:04.688Z,9.20
2022-12-24T12:38:33.971Z,9.20
2022-12-24T12:41:24.752Z,9.20
2022-12-24T12:44:22.584Z,9.20
2022-12-24T12:47:02.099Z,9.20
2022-12-24T12:49:42.568Z,9.30
2022-12-24T12:52:22.787Z,9.40
2022-12-24T12:55:07.776Z,9.40
2022-12-24T12:57:39.341Z,9.50
2022-12-24T13:00:09.787Z,9.50
2022-12-24T13:02:56.471Z,9.50
2022-12-24T13:06:06.841Z,9.40
2022-12-24T13:08:52.412Z,9.30
2022-12-24T13:11:39.854Z,9.30
2022-12-24T13:14:40.782Z,9.20
2022-12-24T13:17:44.861Z,9.20
2022-12-24T13:20:21.121Z,9.20
2022-12-24T13:22:51.334Z,9.30
2022-12-24T13:25:24.743Z,9.30
2022-12-24T13:27:54.362Z,9.30
2022-12-24T13:30:37.344Z,9.40
2022-12-24T13:33:05.961Z,9.40
2022-12-24T13:35:38.176Z,9.40
2022-12-24T13:38:33.207Z,9.40
2022-12-24T13:41:39.251Z,9.40
2022-12-24T13:44:32.654Z,9.40
2022-12-24T13:47:18.453Z,9.30
2022-12-24T13:49:49.608Z,9.20
2022-12-24T13:52:30.093Z,9.10
2022-12-24T13:55:17.857Z,9.00
2022-12-24T13:57:54.484Z,8.90
2022-12-24T14:00:45.815Z,8.80
2022-12-24T14:03:27.815Z,8.80
2022-12-24T14:05:58.332Z,8.80
2022-12-24T14:08:34.657Z,8.70
2022-12-24T14:11:09.646Z,8.70
2022-12-24T14:13:55.496Z,8.70
2022-12-24T14:16:27.522Z,8.70
2022-12-24T14:19:01.516Z,8.70
2022-12-24T14:21:34.009Z,8.70
2022-12-24T14:24:06.104Z,8.70
2022-12-24T14:26:37.324Z,8.70
2022-12-24T14:29:08.773Z,8.80
2022-12-24T14:31:37.872Z,8.80
2022-12-24T14:34:10.045Z,8.80
2022-12-24T14:36:38.218Z,8.90
2022-12-24T14:39:08.186Z,8.90
2022-12-24T14:41:43.659Z,8.90
2022-12-24T14:44:20.985Z,8.80
2022-12-24T14:46:58.061Z,8.70
2022-12-24T14:49:38.595Z,8.60
2022-12-24T14:52:37.944Z,8.50
2022-12-24T14:55:02.094Z,8.40
2022-12-24T14:57:29.915Z,8.30
2022-12-24T14:59:59.794Z,8.10
2022-12-24T15:02:40.397Z,7.90
2022-12-24T15:05:12.132Z,7.80
2022-12-24T15:07:47.604Z,7.70
2022-12-24T15:10:31.649Z,7.60
2022-12-24T15:13:03.619Z,7.50
2022-12-24T15:15:31.853Z,7.50
2022-12-24T15:18:03.028Z,7.40
2022-12-24T15:20:31.675Z,7.40
2022-12-24T15:23:00.308Z,7.40
2022-12-24T15:25:31.820Z,7.40
2022-12-24T15:28:00.407Z,7.40
2022-12-24T15:30:30.664Z,7.30
2022-12-24T15:33:01.275Z,7.30
2022-12-24T15:35:35.230Z,7.20
2022-12-24T15:38:06.379Z,7.20
2022-12-24T15:40:34.887Z,7.10
2022-12-24T15:43:03.909Z,6.90
2022-12-24T15:45:35.349Z,6.90
2022-12-24T15:48:09.863Z,6.90
2022-12-24T15:50:39.150Z,6.90
2022-12-24T15:53:18.702Z,6.90
2022-12-24T15:56:02.459Z,6.90
2022-12-24T15:58:32.190Z,7.00
2022-12-24T16:01:06.207Z,7.00
2022-12-24T16:03:35.887Z,7.10
2022-12-24T16:06:05.167Z,7.20
2022-12-24T16:08:34.926Z,7.20
2022-12-24T16:11:12.489Z,7.20
2022-12-24T16:13:42.918Z,7.30
2022-12-24T16:16:13.972Z,7.40
2022-12-24T16:18:49.185Z,7.40
2022-12-24T16:21:21.787Z,7.40
2022-12-24T16:23:53.026Z,7.40
2022-12-24T16:26:20.772Z,7.50
2022-12-24T16:28:48.816Z,7.50
2022-12-24T16:31:18.726Z,7.60
2022-12-24T16:33:48.241Z,7.60
2022-12-24T16:36:15.948Z,7.60
2022-12-24T16:39:01.187Z,7.60
2022-12-24T16:41:28.859Z,7.50
2022-12-24T16:43:55.629Z,7.50
2022-12-24T16:46:23.539Z,7.50
2022-12-24T16:48:52.775Z,7.50
2022-12-24T16:51:20.548Z,7.50
2022-12-24T16:53:48.306Z,7.40
2022-12-24T16:56:17.083Z,7.40
2022-12-24T16:58:44.846Z,7.40
2022-12-24T17:01:12.661Z,7.30
2022-12-24T17:03:40.573Z,7.20
2022-12-24T17:06:09.836Z,7.00
2022-12-24T17:08:37.954Z,6.90
2022-12-24T17:11:05.835Z,6.90
2022-12-24T17:13:33.551Z,6.80
2022-12-24T17:16:05.596Z,6.80
2022-12-24T17:18:33.676Z,6.80
2022-12-24T17:21:03.618Z,6.90
2022-12-24T17:23:32.685Z,6.90
2022-12-24T17:26:00.570Z,6.90
2022-12-24T17:28:28.460Z,6.90
2022-12-24T17:30:57.373Z,7.00
2022-12-24T17:33:25.250Z,7.10
2022-12-24T17:35:52.983Z,7.20
2022-12-24T17:38:20.678Z,7.20
2022-12-24T17:40:49.789Z,7.40
2022-12-24T17:43:17.889Z,7.50
2022-12-24T17:45:45.642Z,7.50
2022-12-24T17:48:13.415Z,7.50
2022-12-24T17:50:41.424Z,7.60
2022-12-24T17:53:09.191Z,7.60
2022-12-24T17:55:41.426Z,7.60
2022-12-24T17:58:10.667Z,7.60
2022-12-24T18:00:38.701Z,7.60
2022-12-24T18:03:06.479Z,7.60
2022-12-24T18:05:36.133Z,7.60
2022-12-24T18:08:04.044Z,7.60
2022-12-24T18:10:31.873Z,7.70
2022-12-24T18:12:59.616Z,7.70
2022-12-24T18:15:28.775Z,7.80
2022-12-24T18:17:57.391Z,7.80
2022-12-24T18:20:25.137Z,7.90
2022-12-24T18:22:52.875Z,7.90
2022-12-24T18:25:21.198Z,7.90
2022-12-24T18:27:48.960Z,7.90
2022-12-24T18:30:20.488Z,7.90
2022-12-24T18:32:53.327Z,8.00
2022-12-24T18:35:22.531Z,7.90
2022-12-24T18:37:50.407Z,7.90
2022-12-24T18:40:18.253Z,7.90
2022-12-24T18:42:45.959Z,7.90
2022-12-24T18:45:13.696Z,8.00
2022-12-24T18:47:41.448Z,7.90
2022-12-24T18:50:10.821Z,7.90
2022-12-24T18:52:38.559Z,7.90
2022-12-24T18:55:06.785Z,7.90
2022-12-24T18:57:34.495Z,7.90
2022-12-24T19:00:02.228Z,7.90
2022-12-24T19:02:30.109Z,7.80
2022-12-24T19:04:57.919Z,7.80
2022-12-24T19:07:26.962Z,7.70
2022-12-24T19:09:54.692Z,7.70
2022-12-24T19:12:22.420Z,7.70
2022-12-24T19:14:50.216Z,7.70
2022-12-24T19:17:17.939Z,7.60
2022-12-24T19:19:45.669Z,7.60
2022-12-24T19:22:13.385Z,7.50
2022-12-24T19:24:42.768Z,7.30
2022-12-24T19:27:10.509Z,7.20
2022-12-24T19:29:38.305Z,7.00
2022-12-24T19:32:06.218Z,6.90
2022-12-24T19:34:34.059Z,6.90
2022-12-24T19:37:01.789Z,6.90
2022-12-24T19:39:32.136Z,6.70
2022-12-24T19:42:01.691Z,6.70
2022-12-24T19:44:29.694Z,6.60
2022-12-24T19:46:57.401Z,6.60
2022-12-24T19:49:25.103Z,6.60
2022-12-24T19:51:54.692Z,6.60
2022-12-24T19:54:22.795Z,6.60
2022-12-24T19:56:50.849Z,6.40
2022-12-24T19:59:19.886Z,6.40
2022-12-24T20:01:48.031Z,6.40
2022-12-24T20:04:18.333Z,6.30
2022-12-24T20:06:46.070Z,6.20
2022-12-24T20:09:14.394Z,6.20
2022-12-24T20:11:42.171Z,6.20
2022-12-24T20:14:11.552Z,6.20
2022-12-24T20:16:40.692Z,6.20
2022-12-24T20:19:14.196Z,6.20
2022-12-24T20:21:42.186Z,6.10
2022-12-24T20:24:09.982Z,6.10
2022-12-24T20:26:38.158Z,6.10
2022-12-24T20:29:07.177Z,6.10
2022-12-24T20:31:35.214Z,6.10
2022-12-24T20:34:07.340Z,6.00
2022-12-24T20:36:35.748Z,6.00
2022-12-24T20:39:04.217Z,6.00
2022-12-24T20:41:34.561Z,6.00
2022-12-24T20:44:04.527Z,6.10
2022-12-24T20:46:32.871Z,6.20
2022-12-24T20:49:00.745Z,6.30
2022-12-24T20:51:31.759Z,6.30
2022-12-24T20:54:01.612Z,6.30
2022-12-24T20:56:30.724Z,6.40
2022-12-24T20:59:00.321Z,6.40
2022-12-24T21:01:28.466Z,6.40
2022-12-24T21:04:00.198Z,6.20
2022-12-24T21:06:29.355Z,6.40
2022-12-24T21:08:57.180Z,6.40
2022-12-24T21:11:43.007Z,6.30
2022-12-24T21:14:11.679Z,6.30
2022-12-24T21:16:40.426Z,6.30
2022-12-24T21:19:10.231Z,6.30
2022-12-24T21:21:39.343Z,6.20
2022-12-24T21:24:08.075Z,6.20
2022-12-24T21:26:38.364Z,6.10
2022-12-24T21:29:08.161Z,6.10
2022-12-24T21:31:36.740Z,6.00
2022-12-24T21:34:04.643Z,6.00
2022-12-24T21:36:32.611Z,6.00
2022-12-24T21:39:01.670Z,5.90
2022-12-24T21:41:29.623Z,5.90
2022-12-24T21:43:57.464Z,5.90
2022-12-24T21:46:27.183Z,5.90
2022-12-24T21:49:14.043Z,5.90
2022-12-24T21:51:49.019Z,5.80
2022-12-24T21:54:23.108Z,5.80
2022-12-24T21:57:08.534Z,5.70
2022-12-24T21:59:36.348Z,5.70
2022-12-24T22:02:04.412Z,5.70
2022-12-24T22:04:32.808Z,5.60
2022-12-24T22:07:18.106Z,5.70
2022-12-24T22:10:05.015Z,5.70
2022-12-24T22:12:34.262Z,5.70
2022-12-24T22:15:02.652Z,5.80
2022-12-24T22:17:30.399Z,5.80
2022-12-24T22:19:58.463Z,5.90
2022-12-24T22:22:26.424Z,5.90
2022-12-24T22:24:55.518Z,5.90
2022-12-24T22:27:23.967Z,5.90
2022-12-24T22:29:51.728Z,5.90
2022-12-24T22:32:19.464Z,6.00
2022-12-24T22:34:49.394Z,6.00
2022-12-24T22:37:17.257Z,6.00
2022-12-24T22:39:45.080Z,6.10
2022-12-24T22:42:14.143Z,6.10
2022-12-24T22:44:41.910Z,6.00
2022-12-24T22:47:09.882Z,6.00
2022-12-24T22:49:37.750Z,6.00
2022-12-24T22:52:05.704Z,6.00
2022-12-24T22:54:33.564Z,5.90
2022-12-24T22:57:01.304Z,5.90
2022-12-24T22:59:30.367Z,5.80
2022-12-24T23:01:58.264Z,5.60
2022-12-24T23:04:26.857Z,5.60
2022-12-24T23:06:54.664Z,5.50
2022-12-24T23:09:22.388Z,5.50
2022-12-24T23:11:50.219Z,5.40
2022-12-24T23:14:37.624Z,5.30
2022-12-24T23:17:07.159Z,5.30
2022-12-24T23:19:35.307Z,5.30
2022-12-24T23:22:05.031Z,5.20
2022-12-24T23:24:33.569Z,5.10
2022-12-24T23:27:02.496Z,5.00
2022-12-24T23:29:30.335Z,5.00
2022-12-24T23:31:58.126Z,4.90
2022-12-24T23:34:27.315Z,4.90
2022-12-24T23:36:55.098Z,4.80
2022-12-24T23:39:22.951Z,4.80
2022-12-24T23:41:50.699Z,4.80
2022-12-24T23:44:18.547Z,4.80
2022-12-24T23:46:46.339Z,4.80
2022-12-24T23:49:15.543Z,4.80
2022-12-24T23:51:44.627Z,4.70
2022-12-24T23:54:12.374Z,4.70
2022-12-24T23:56:40.120Z,4.50
2022-12-24T23:59:07.850Z,4.50
